createdAt,value
2018-08-06T00:00:25.369Z,1015.32
2018-08-06T00:01:05.939Z,1015.3
2018-08-06T00:01:46.507Z,1015.31
2018-08-06T00:02:27.084Z,1015.32
2018-08-06T00:03:07.721Z,1015.31
2018-08-06T00:03:48.284Z,1015.3
2018-08-06T00:04:28.832Z,1015.29
2018-08-06T00:05:09.402Z,1015.28
2018-08-06T00:05:49.992Z,1015.3
2018-08-06T00:06:30.562Z,1015.29
2018-08-06T00:07:11.135Z,1015.29
2018-08-06T00:07:51.744Z,1015.25
2018-08-06T00:08:32.367Z,1015.28
2018-08-06T00:09:12.864Z,1015.23
2018-08-06T00:09:53.441Z,1015.21
2018-08-06T00:10:34.004Z,1015.23
2018-08-06T00:11:14.562Z,1015.21
2018-08-06T00:11:55.133Z,1015.22
2018-08-06T00:12:35.689Z,1015.18
2018-08-06T00:13:16.244Z,1015.17
2018-08-06T00:13:56.811Z,1015.19
2018-08-06T00:14:37.384Z,1015.15
2018-08-06T00:15:17.969Z,1015.16
2018-08-06T00:15:58.542Z,1015.15
2018-08-06T00:16:39.112Z,1015.1
2018-08-06T00:17:19.714Z,1015.16
2018-08-06T00:18:00.281Z,1015.16
2018-08-06T00:18:40.850Z,1015.15
2018-08-06T00:19:21.425Z,1015.14
2018-08-06T00:20:01.998Z,1015.16
2018-08-06T00:20:42.582Z,1015.17
2018-08-06T00:21:23.148Z,1015.2
2018-08-06T00:22:03.707Z,1015.19
2018-08-06T00:22:44.250Z,1015.22
2018-08-06T00:23:24.818Z,1015.19
2018-08-06T00:24:05.391Z,1015.21
2018-08-06T00:24:45.959Z,1015.16
2018-08-06T00:25:26.549Z,1015.15
2018-08-06T00:26:07.110Z,1015.18
2018-08-06T00:26:47.682Z,1015.15
2018-08-06T00:27:28.253Z,1015.14
2018-08-06T00:28:08.826Z,1015.17
2018-08-06T00:28:49.401Z,1015.12
2018-08-06T00:29:30.002Z,1015.12
2018-08-06T00:30:10.533Z,1015.11
2018-08-06T00:30:51.098Z,1015.1
2018-08-06T00:31:31.655Z,1015.1
2018-08-06T00:32:12.223Z,1015.11
2018-08-06T00:32:52.789Z,1015.08
2018-08-06T00:33:33.358Z,1015.08
2018-08-06T00:34:14.034Z,1015.09
2018-08-06T00:34:54.606Z,1015.07
2018-08-06T00:35:35.180Z,1015.1
2018-08-06T00:36:15.751Z,1015.11
2018-08-06T00:36:56.308Z,1015.15
2018-08-06T00:37:36.880Z,1015.13
2018-08-06T00:38:17.449Z,1015.15
2018-08-06T00:38:58.017Z,1015.15
2018-08-06T00:39:38.647Z,1015.12
2018-08-06T00:40:19.225Z,1015.16
2018-08-06T00:40:59.783Z,1015.15
2018-08-06T00:41:40.354Z,1015.15
2018-08-06T00:42:20.924Z,1015.18
2018-08-06T00:43:01.498Z,1015.14
2018-08-06T00:43:42.066Z,1015.15
2018-08-06T00:44:22.639Z,1015.14
2018-08-06T00:45:03.220Z,1015.1
2018-08-06T00:45:43.844Z,1015.14
2018-08-06T00:46:24.324Z,1015.12
2018-08-06T00:47:04.899Z,1015.14
2018-08-06T00:47:45.450Z,1015.12
2018-08-06T00:48:26.023Z,1015.11
2018-08-06T00:49:06.590Z,1015.14
2018-08-06T00:49:47.166Z,1015.1
2018-08-06T00:50:27.731Z,1015.12
2018-08-06T00:51:08.314Z,1015.11
2018-08-06T00:51:48.864Z,1015.11
2018-08-06T00:52:29.439Z,1015.09
2018-08-06T00:53:10.036Z,1015.11
2018-08-06T00:53:50.600Z,1015.1
2018-08-06T00:54:31.231Z,1015.11
2018-08-06T00:55:11.808Z,1015.12
2018-08-06T00:55:52.366Z,1015.14
2018-08-06T00:56:32.937Z,1015.09
2018-08-06T00:57:13.511Z,1015.11
2018-08-06T00:57:54.082Z,1015.12
2018-08-06T00:58:34.725Z,1015.11
2018-08-06T00:59:15.290Z,1015.11
2018-08-06T00:59:55.871Z,1015.09
2018-08-06T01:00:36.440Z,1015.1
2018-08-06T01:01:17.010Z,1015.06
2018-08-06T01:01:57.725Z,1015.1
2018-08-06T01:02:38.207Z,1015.05
2018-08-06T01:03:18.885Z,1015.05
2018-08-06T01:03:59.444Z,1015.05
2018-08-06T01:04:40.004Z,1015.08
2018-08-06T01:05:20.562Z,1015.08
2018-08-06T01:06:01.114Z,1015.07
2018-08-06T01:06:41.706Z,1015.11
2018-08-06T01:07:22.268Z,1015.14
2018-08-06T01:08:02.833Z,1015.15
2018-08-06T01:08:43.428Z,1015.16
2018-08-06T01:09:24.014Z,1015.15
2018-08-06T01:10:04.574Z,1015.17
2018-08-06T01:10:45.144Z,1015.18
2018-08-06T01:11:25.715Z,1015.2
2018-08-06T01:12:06.270Z,1015.2
2018-08-06T01:12:46.842Z,1015.18
2018-08-06T01:13:27.426Z,1015.2
2018-08-06T01:14:07.977Z,1015.18
2018-08-06T01:14:48.594Z,1015.2
2018-08-06T01:15:29.165Z,1015.18
2018-08-06T01:16:09.752Z,1015.17
2018-08-06T01:16:50.300Z,1015.19
2018-08-06T01:17:30.856Z,1015.15
2018-08-06T01:18:11.420Z,1015.2
2018-08-06T01:18:51.994Z,1015.18
2018-08-06T01:19:32.583Z,1015.14
2018-08-06T01:20:13.166Z,1015.18
2018-08-06T01:20:53.734Z,1015.19
2018-08-06T01:21:34.307Z,1015.13
2018-08-06T01:22:14.886Z,1015.18
2018-08-06T01:22:55.515Z,1015.15
2018-08-06T01:23:36.012Z,1015.14
2018-08-06T01:24:16.580Z,1015.14
2018-08-06T01:24:57.152Z,1015.11
2018-08-06T01:25:37.724Z,1015.11
2018-08-06T01:26:18.290Z,1015.11
2018-08-06T01:26:58.872Z,1015.13
2018-08-06T01:27:39.429Z,1015.12
2018-08-06T01:28:19.999Z,1015.13
2018-08-06T01:29:00.565Z,1015.12
2018-08-06T01:29:41.134Z,1015.16
2018-08-06T01:30:21.895Z,1015.13
2018-08-06T01:31:02.471Z,1015.14
2018-08-06T01:31:43.081Z,1015.11
2018-08-06T01:32:23.625Z,1015.15
2018-08-06T01:33:04.203Z,1015.14
2018-08-06T01:33:44.778Z,1015.15
2018-08-06T01:34:25.367Z,1015.14
2018-08-06T01:35:05.914Z,1015.14
2018-08-06T01:35:47.064Z,1015.14
2018-08-06T01:36:27.630Z,1015.16
2018-08-06T01:37:08.203Z,1015.16
2018-08-06T01:37:48.778Z,1015.16
2018-08-06T01:38:29.347Z,1015.12
2018-08-06T01:39:09.917Z,1015.14
2018-08-06T01:39:50.503Z,1015.18
2018-08-06T01:40:31.062Z,1015.1
2018-08-06T01:41:11.621Z,1015.12
2018-08-06T01:41:52.194Z,1015.12
2018-08-06T01:42:32.754Z,1015.11
2018-08-06T01:43:13.326Z,1015.11
2018-08-06T01:43:53.884Z,1015.1
2018-08-06T01:44:34.489Z,1015.1
2018-08-06T01:45:15.020Z,1015.08
2018-08-06T01:45:55.610Z,1015.02
2018-08-06T01:46:36.208Z,1015.04
2018-08-06T01:47:16.773Z,1015.06
2018-08-06T01:47:57.337Z,1015.04
2018-08-06T01:48:37.914Z,1015
2018-08-06T01:49:18.491Z,1015
2018-08-06T01:49:59.078Z,1014.98
2018-08-06T01:50:39.641Z,1014.96
2018-08-06T01:51:20.232Z,1014.98
2018-08-06T01:52:00.798Z,1014.95
2018-08-06T01:52:41.367Z,1014.95
2018-08-06T01:53:21.942Z,1014.97
2018-08-06T01:54:02.511Z,1014.96
2018-08-06T01:54:43.099Z,1014.96
2018-08-06T01:55:23.670Z,1014.95
2018-08-06T01:56:04.281Z,1014.97
2018-08-06T01:56:44.844Z,1014.99
2018-08-06T01:57:25.415Z,1014.97
2018-08-06T01:58:05.976Z,1014.95
2018-08-06T01:58:46.550Z,1015
2018-08-06T01:59:27.135Z,1014.87
2018-08-06T02:00:07.707Z,1014.91
2018-08-06T02:00:48.274Z,1014.94
2018-08-06T02:01:28.844Z,1014.9
2018-08-06T02:02:09.420Z,1014.91
2018-08-06T02:02:49.990Z,1014.91
2018-08-06T02:03:30.557Z,1014.92
2018-08-06T02:04:11.123Z,1014.91
2018-08-06T02:04:51.730Z,1014.91
2018-08-06T02:05:32.378Z,1014.96
2018-08-06T02:06:12.946Z,1014.91
2018-08-06T02:06:53.518Z,1014.9
2018-08-06T02:07:34.091Z,1014.94
2018-08-06T02:08:14.665Z,1014.91
2018-08-06T02:08:55.243Z,1014.87
2018-08-06T02:09:35.810Z,1014.88
2018-08-06T02:10:16.388Z,1014.88
2018-08-06T02:10:56.953Z,1014.9
2018-08-06T02:11:37.523Z,1014.88
2018-08-06T02:12:18.244Z,1014.9
2018-08-06T02:12:58.871Z,1014.92
2018-08-06T02:13:39.443Z,1014.9
2018-08-06T02:14:20.015Z,1014.9
2018-08-06T02:15:00.587Z,1014.89
2018-08-06T02:15:41.142Z,1014.91
2018-08-06T02:16:21.710Z,1014.95
2018-08-06T02:17:02.266Z,1014.95
2018-08-06T02:17:42.971Z,1014.94
2018-08-06T02:18:23.558Z,1014.95
2018-08-06T02:19:04.141Z,1014.91
2018-08-06T02:19:44.711Z,1014.94
2018-08-06T02:20:25.287Z,1014.93
2018-08-06T02:21:05.849Z,1014.96
2018-08-06T02:21:46.440Z,1014.94
2018-08-06T02:22:26.992Z,1014.91
2018-08-06T02:23:07.548Z,1014.92
2018-08-06T02:23:48.131Z,1014.93
2018-08-06T02:24:28.696Z,1014.93
2018-08-06T02:25:09.349Z,1014.97
2018-08-06T02:25:49.819Z,1014.93
2018-08-06T02:26:30.610Z,1014.93
2018-08-06T02:27:11.010Z,1014.92
2018-08-06T02:27:51.658Z,1014.96
2018-08-06T02:28:32.206Z,1014.93
2018-08-06T02:29:12.770Z,1014.92
2018-08-06T02:29:53.340Z,1014.95
2018-08-06T02:30:33.894Z,1014.94
2018-08-06T02:31:14.493Z,1014.94
2018-08-06T02:31:55.069Z,1014.89
2018-08-06T02:32:35.644Z,1014.89
2018-08-06T02:33:16.212Z,1014.89
2018-08-06T02:33:56.787Z,1014.87
2018-08-06T02:34:37.343Z,1014.92
2018-08-06T02:35:17.905Z,1014.93
2018-08-06T02:35:58.472Z,1014.93
2018-08-06T02:36:39.045Z,1014.92
2018-08-06T02:37:19.602Z,1014.94
2018-08-06T02:38:00.176Z,1014.9
2018-08-06T02:38:40.754Z,1014.91
2018-08-06T02:39:21.330Z,1014.91
2018-08-06T02:40:01.915Z,1014.88
2018-08-06T02:40:42.491Z,1014.91
2018-08-06T02:41:23.020Z,1014.89
2018-08-06T02:42:03.667Z,1014.88
2018-08-06T02:42:44.203Z,1014.89
2018-08-06T02:43:24.822Z,1014.86
2018-08-06T02:44:05.552Z,1014.89
2018-08-06T02:44:46.111Z,1014.88
2018-08-06T02:45:26.689Z,1014.87
2018-08-06T02:46:07.253Z,1014.84
2018-08-06T02:46:47.822Z,1014.86
2018-08-06T02:47:28.389Z,1014.84
2018-08-06T02:48:08.963Z,1014.85
2018-08-06T02:48:49.550Z,1014.84
2018-08-06T02:49:30.100Z,1014.87
2018-08-06T02:50:10.648Z,1014.85
2018-08-06T02:50:51.229Z,1014.87
2018-08-06T02:51:31.809Z,1014.85
2018-08-06T02:52:12.601Z,1014.87
2018-08-06T02:52:53.163Z,1014.86
2018-08-06T02:53:33.751Z,1014.86
2018-08-06T02:54:14.310Z,1014.86
2018-08-06T02:54:54.874Z,1014.87
2018-08-06T02:55:35.442Z,1014.87
2018-08-06T02:56:16.022Z,1014.88
2018-08-06T02:56:56.582Z,1014.9
2018-08-06T02:57:37.215Z,1014.86
2018-08-06T02:58:17.771Z,1014.86
2018-08-06T02:58:58.377Z,1014.81
2018-08-06T02:59:38.946Z,1014.84
2018-08-06T03:00:19.514Z,1014.87
2018-08-06T03:01:00.056Z,1014.88
2018-08-06T03:01:40.627Z,1014.88
2018-08-06T03:02:21.193Z,1014.86
2018-08-06T03:03:01.741Z,1014.87
2018-08-06T03:03:42.334Z,1014.86
2018-08-06T03:04:22.914Z,1014.86
2018-08-06T03:05:03.524Z,1014.87
2018-08-06T03:05:44.062Z,1014.9
2018-08-06T03:06:24.623Z,1014.87
2018-08-06T03:07:05.333Z,1014.87
2018-08-06T03:07:45.894Z,1014.88
2018-08-06T03:08:27.358Z,1014.88
2018-08-06T03:09:07.908Z,1014.91
2018-08-06T03:09:48.529Z,1014.89
2018-08-06T03:10:29.078Z,1014.9
2018-08-06T03:11:09.640Z,1014.89
2018-08-06T03:11:50.204Z,1014.88
2018-08-06T03:12:30.768Z,1014.9
2018-08-06T03:13:11.460Z,1014.93
2018-08-06T03:13:52.063Z,1014.89
2018-08-06T03:14:32.622Z,1014.89
2018-08-06T03:15:13.179Z,1014.88
2018-08-06T03:15:53.747Z,1014.91
2018-08-06T03:16:34.304Z,1014.92
2018-08-06T03:17:14.866Z,1014.92
2018-08-06T03:17:55.436Z,1014.92
2018-08-06T03:18:35.997Z,1014.93
2018-08-06T03:19:16.588Z,1014.93
2018-08-06T03:19:57.158Z,1014.94
2018-08-06T03:20:37.810Z,1014.93
2018-08-06T03:21:18.537Z,1014.93
2018-08-06T03:21:59.087Z,1014.93
2018-08-06T03:22:39.647Z,1014.96
2018-08-06T03:23:20.219Z,1014.94
2018-08-06T03:24:00.778Z,1014.94
2018-08-06T03:24:41.424Z,1014.92
2018-08-06T03:25:21.963Z,1014.93
2018-08-06T03:26:02.524Z,1014.94
2018-08-06T03:26:43.104Z,1014.9
2018-08-06T03:27:23.736Z,1014.93
2018-08-06T03:28:04.345Z,1014.95
2018-08-06T03:28:44.902Z,1014.94
2018-08-06T03:29:25.452Z,1014.96
2018-08-06T03:30:06.004Z,1014.97
2018-08-06T03:30:46.702Z,1014.96
2018-08-06T03:31:27.112Z,1014.96
2018-08-06T03:32:07.836Z,1014.94
2018-08-06T03:32:48.384Z,1014.95
2018-08-06T03:33:29.025Z,1014.91
2018-08-06T03:34:09.589Z,1014.93
2018-08-06T03:34:50.146Z,1014.96
2018-08-06T03:35:30.708Z,1014.94
2018-08-06T03:36:11.457Z,1014.96
2018-08-06T03:36:52.396Z,1014.99
2018-08-06T03:37:32.952Z,1014.96
2018-08-06T03:38:13.525Z,1014.97
2018-08-06T03:38:54.105Z,1014.97
2018-08-06T03:39:34.677Z,1014.98
2018-08-06T03:40:15.279Z,1014.96
2018-08-06T03:40:55.819Z,1014.98
2018-08-06T03:41:36.382Z,1014.99
2018-08-06T03:42:16.943Z,1014.99
2018-08-06T03:42:57.508Z,1014.99
2018-08-06T03:43:38.076Z,1015.01
2018-08-06T03:44:18.653Z,1015.01
2018-08-06T03:44:59.261Z,1014.98
2018-08-06T03:45:39.840Z,1014.99
2018-08-06T03:46:20.430Z,1015
2018-08-06T03:47:01.020Z,1014.98
2018-08-06T03:47:41.606Z,1015.01
2018-08-06T03:48:22.162Z,1015.03
2018-08-06T03:49:02.739Z,1015.05
2018-08-06T03:49:43.304Z,1015.02
2018-08-06T03:50:23.863Z,1015.05
2018-08-06T03:51:04.428Z,1015.04
2018-08-06T03:51:45.023Z,1015
2018-08-06T03:52:25.598Z,1015.04
2018-08-06T03:53:06.220Z,1015.01
2018-08-06T03:53:46.712Z,1014.99
2018-08-06T03:54:27.284Z,1015.02
2018-08-06T03:55:07.850Z,1015.02
2018-08-06T03:55:48.430Z,1015.04
2018-08-06T03:56:29.007Z,1015.02
2018-08-06T03:57:09.554Z,1015.02
2018-08-06T03:57:50.121Z,1015.04
2018-08-06T03:58:30.717Z,1015.02
2018-08-06T03:59:11.268Z,1015.01
2018-08-06T03:59:51.838Z,1015.04
2018-08-06T04:00:32.395Z,1015.03
2018-08-06T04:01:13.004Z,1015.03
2018-08-06T04:01:53.777Z,1015.04
2018-08-06T04:02:34.125Z,1015
2018-08-06T04:03:14.703Z,1015
2018-08-06T04:03:55.278Z,1014.96
2018-08-06T04:04:35.829Z,1015
2018-08-06T04:05:16.383Z,1015
2018-08-06T04:05:56.948Z,1015.01
2018-08-06T04:06:37.550Z,1014.99
2018-08-06T04:07:18.116Z,1015.03
2018-08-06T04:07:58.713Z,1015.02
2018-08-06T04:08:39.286Z,1015.04
2018-08-06T04:09:19.866Z,1015.03
2018-08-06T04:10:00.428Z,1015.05
2018-08-06T04:10:41.006Z,1015.02
2018-08-06T04:11:21.563Z,1015.06
2018-08-06T04:12:02.146Z,1015.04
2018-08-06T04:12:42.712Z,1015.06
2018-08-06T04:13:23.277Z,1015.08
2018-08-06T04:14:03.839Z,1015.08
2018-08-06T04:14:44.403Z,1015.07
2018-08-06T04:15:24.971Z,1015.08
2018-08-06T04:16:05.597Z,1015.04
2018-08-06T04:16:46.246Z,1015.07
2018-08-06T04:17:26.875Z,1015.06
2018-08-06T04:18:07.376Z,1015.1
2018-08-06T04:18:47.936Z,1015.1
2018-08-06T04:19:28.509Z,1015.11
2018-08-06T04:20:09.063Z,1015.06
2018-08-06T04:20:49.621Z,1015.12
2018-08-06T04:21:30.185Z,1015.08
2018-08-06T04:22:10.779Z,1015.11
2018-08-06T04:22:51.350Z,1015.08
2018-08-06T04:23:31.982Z,1015.13
2018-08-06T04:24:12.580Z,1015.12
2018-08-06T04:24:53.334Z,1015.11
2018-08-06T04:25:33.908Z,1015.14
2018-08-06T04:26:14.505Z,1015.12
2018-08-06T04:26:55.060Z,1015.13
2018-08-06T04:27:35.628Z,1015.12
2018-08-06T04:28:16.184Z,1015.17
2018-08-06T04:28:56.743Z,1015.13
2018-08-06T04:29:37.328Z,1015.14
2018-08-06T04:30:17.874Z,1015.14
2018-08-06T04:30:58.468Z,1015.15
2018-08-06T04:31:39.053Z,1015.13
2018-08-06T04:32:19.638Z,1015.15
2018-08-06T04:33:00.226Z,1015.12
2018-08-06T04:33:40.746Z,1015.14
2018-08-06T04:34:21.511Z,1015.16
2018-08-06T04:35:02.076Z,1015.17
2018-08-06T04:35:42.640Z,1015.17
2018-08-06T04:36:23.233Z,1015.17
2018-08-06T04:37:03.784Z,1015.14
2018-08-06T04:37:44.347Z,1015.16
2018-08-06T04:38:24.959Z,1015.15
2018-08-06T04:39:05.476Z,1015.18
2018-08-06T04:39:46.042Z,1015.17
2018-08-06T04:40:26.601Z,1015.13
2018-08-06T04:41:07.164Z,1015.13
2018-08-06T04:41:47.726Z,1015.17
2018-08-06T04:42:28.267Z,1015.17
2018-08-06T04:43:08.863Z,1015.15
2018-08-06T04:43:49.606Z,1015.16
2018-08-06T04:44:30.181Z,1015.17
2018-08-06T04:45:10.817Z,1015.17
2018-08-06T04:45:51.413Z,1015.16
2018-08-06T04:46:31.926Z,1015.16
2018-08-06T04:47:12.488Z,1015.22
2018-08-06T04:47:53.045Z,1015.2
2018-08-06T04:48:33.605Z,1015.24
2018-08-06T04:49:14.193Z,1015.24
2018-08-06T04:49:54.746Z,1015.2
2018-08-06T04:50:35.334Z,1015.25
2018-08-06T04:51:15.896Z,1015.21
2018-08-06T04:51:56.483Z,1015.2
2018-08-06T04:52:37.251Z,1015.23
2018-08-06T04:53:17.837Z,1015.21
2018-08-06T04:53:58.407Z,1015.21
2018-08-06T04:54:38.966Z,1015.24
2018-08-06T04:55:19.575Z,1015.26
2018-08-06T04:56:00.147Z,1015.24
2018-08-06T04:56:40.711Z,1015.25
2018-08-06T04:57:21.282Z,1015.25
2018-08-06T04:58:01.843Z,1015.25
2018-08-06T04:58:42.414Z,1015.24
2018-08-06T04:59:22.987Z,1015.27
2018-08-06T05:00:03.545Z,1015.25
2018-08-06T05:00:44.105Z,1015.27
2018-08-06T05:01:24.702Z,1015.28
2018-08-06T05:02:05.289Z,1015.26
2018-08-06T05:02:45.905Z,1015.26
2018-08-06T05:03:26.469Z,1015.26
2018-08-06T05:04:07.031Z,1015.28
2018-08-06T05:04:47.615Z,1015.29
2018-08-06T05:05:28.176Z,1015.29
2018-08-06T05:06:08.744Z,1015.34
2018-08-06T05:06:49.344Z,1015.32
2018-08-06T05:07:29.909Z,1015.29
2018-08-06T05:08:10.493Z,1015.33
2018-08-06T05:08:51.104Z,1015.31
2018-08-06T05:09:31.666Z,1015.33
2018-08-06T05:10:12.239Z,1015.33
2018-08-06T05:10:52.799Z,1015.34
2018-08-06T05:11:33.375Z,1015.36
2018-08-06T05:12:13.934Z,1015.4
2018-08-06T05:12:54.574Z,1015.39
2018-08-06T05:13:35.141Z,1015.38
2018-08-06T05:14:15.697Z,1015.43
2018-08-06T05:14:56.272Z,1015.46
2018-08-06T05:15:36.836Z,1015.39
2018-08-06T05:16:17.406Z,1015.44
2018-08-06T05:16:57.970Z,1015.41
2018-08-06T05:17:38.531Z,1015.4
2018-08-06T05:18:19.109Z,1015.39
2018-08-06T05:18:59.667Z,1015.42
2018-08-06T05:19:40.240Z,1015.39
2018-08-06T05:20:20.793Z,1015.41
2018-08-06T05:21:01.367Z,1015.4
2018-08-06T05:21:41.939Z,1015.4
2018-08-06T05:22:22.520Z,1015.43
2018-08-06T05:23:03.185Z,1015.43
2018-08-06T05:23:43.727Z,1015.42
2018-08-06T05:24:24.316Z,1015.43
2018-08-06T05:25:04.887Z,1015.43
2018-08-06T05:25:45.443Z,1015.45
2018-08-06T05:26:26.016Z,1015.47
2018-08-06T05:27:06.590Z,1015.42
2018-08-06T05:27:47.153Z,1015.44
2018-08-06T05:28:27.722Z,1015.44
2018-08-06T05:29:08.277Z,1015.44
2018-08-06T05:29:48.834Z,1015.44
2018-08-06T05:30:29.431Z,1015.49
2018-08-06T05:31:09.968Z,1015.5
2018-08-06T05:31:50.527Z,1015.49
2018-08-06T05:32:31.096Z,1015.49
2018-08-06T05:33:11.675Z,1015.51
2018-08-06T05:33:52.312Z,1015.54
2018-08-06T05:34:32.882Z,1015.55
2018-08-06T05:35:13.442Z,1015.56
2018-08-06T05:35:53.983Z,1015.57
2018-08-06T05:36:34.536Z,1015.55
2018-08-06T05:37:15.180Z,1015.52
2018-08-06T05:37:55.851Z,1015.55
2018-08-06T05:38:36.420Z,1015.55
2018-08-06T05:39:16.983Z,1015.54
2018-08-06T05:39:57.611Z,1015.56
2018-08-06T05:40:38.302Z,1015.53
2018-08-06T05:41:19.566Z,1015.54
2018-08-06T05:41:59.748Z,1015.51
2018-08-06T05:42:40.337Z,1015.54
2018-08-06T05:43:20.974Z,1015.57
2018-08-06T05:44:01.567Z,1015.57
2018-08-06T05:44:42.160Z,1015.52
2018-08-06T05:45:22.730Z,1015.58
2018-08-06T05:46:03.306Z,1015.57
2018-08-06T05:46:43.971Z,1015.68
2018-08-06T05:47:24.539Z,1015.7
2018-08-06T05:48:05.091Z,1015.72
2018-08-06T05:48:45.770Z,1015.68
2018-08-06T05:49:26.442Z,1015.62
2018-08-06T05:50:07.124Z,1015.76
2018-08-06T05:50:47.701Z,1015.82
2018-08-06T05:51:28.328Z,1016.03
2018-08-06T05:52:08.894Z,1016.22
2018-08-06T05:52:49.473Z,1016.29
2018-08-06T05:53:30.077Z,1016.24
2018-08-06T05:54:10.636Z,1016.26
2018-08-06T05:54:51.192Z,1016.31
2018-08-06T05:55:31.775Z,1016.3
2018-08-06T05:56:12.337Z,1016.34
2018-08-06T05:56:52.899Z,1016.34
2018-08-06T05:57:33.447Z,1016.35
2018-08-06T05:58:14.064Z,1016.37
2018-08-06T05:58:54.570Z,1016.38
2018-08-06T05:59:35.142Z,1016.34
2018-08-06T06:00:15.731Z,1016.39
2018-08-06T06:00:56.298Z,1016.37
2018-08-06T06:01:36.856Z,1016.42
2018-08-06T06:02:17.445Z,1016.37
2018-08-06T06:02:58.023Z,1016.44
2018-08-06T06:03:38.726Z,1016.49
2018-08-06T06:04:19.296Z,1016.5
2018-08-06T06:04:59.869Z,1016.48
2018-08-06T06:05:40.437Z,1016.49
2018-08-06T06:06:21.017Z,1016.53
2018-08-06T06:07:01.596Z,1016.54
2018-08-06T06:07:42.167Z,1016.55
2018-08-06T06:08:22.742Z,1016.54
2018-08-06T06:09:03.318Z,1016.5
2018-08-06T06:09:43.895Z,1016.32
2018-08-06T06:10:24.452Z,1016.11
2018-08-06T06:11:05.032Z,1016
2018-08-06T06:11:45.648Z,1015.97
2018-08-06T06:12:26.209Z,1016.01
2018-08-06T06:13:06.900Z,1015.98
2018-08-06T06:13:47.691Z,1015.98
2018-08-06T06:14:28.272Z,1016
2018-08-06T06:15:08.840Z,1016.01
2018-08-06T06:15:49.412Z,1015.99
2018-08-06T06:16:29.986Z,1015.99
2018-08-06T06:17:10.579Z,1016
2018-08-06T06:17:51.156Z,1016.01
2018-08-06T06:18:31.741Z,1015.99
2018-08-06T06:19:12.385Z,1015.96
2018-08-06T06:19:52.898Z,1016
2018-08-06T06:20:33.465Z,1016
2018-08-06T06:21:14.047Z,1015.98
2018-08-06T06:21:54.640Z,1015.94
2018-08-06T06:22:35.203Z,1015.95
2018-08-06T06:23:15.951Z,1015.97
2018-08-06T06:23:56.558Z,1015.99
2018-08-06T06:24:37.142Z,1015.97
2018-08-06T06:25:17.714Z,1015.99
2018-08-06T06:25:58.297Z,1015.98
2018-08-06T06:26:38.873Z,1016
2018-08-06T06:27:19.458Z,1016
2018-08-06T06:28:00.054Z,1016.01
2018-08-06T06:28:40.702Z,1016.01
2018-08-06T06:29:21.257Z,1016.02
2018-08-06T06:30:01.815Z,1015.99
2018-08-06T06:30:42.460Z,1016.02
2018-08-06T06:31:23.016Z,1015.97
2018-08-06T06:32:03.600Z,1016
2018-08-06T06:32:44.196Z,1016.03
2018-08-06T06:33:24.929Z,1016.02
2018-08-06T06:34:05.490Z,1016.05
2018-08-06T06:34:46.108Z,1016.03
2018-08-06T06:35:26.627Z,1016.01
2018-08-06T06:36:07.204Z,1016.03
2018-08-06T06:36:47.780Z,1016.02
2018-08-06T06:37:28.348Z,1016.02
2018-08-06T06:38:08.916Z,1016.01
2018-08-06T06:38:49.489Z,1016.03
2018-08-06T06:39:30.055Z,1016.05
2018-08-06T06:40:10.644Z,1016.07
2018-08-06T06:40:51.221Z,1016.03
2018-08-06T06:41:31.787Z,1016.03
2018-08-06T06:42:12.458Z,1016.05
2018-08-06T06:42:53.032Z,1016.05
2018-08-06T06:43:33.598Z,1016.06
2018-08-06T06:44:14.170Z,1016.07
2018-08-06T06:44:54.746Z,1016.04
2018-08-06T06:45:35.365Z,1016.05
2018-08-06T06:46:15.966Z,1016.12
2018-08-06T06:46:56.549Z,1016.06
2018-08-06T06:47:37.139Z,1016.09
2018-08-06T06:48:17.749Z,1016.09
2018-08-06T06:48:58.499Z,1016.12
2018-08-06T06:49:38.917Z,1016.09
2018-08-06T06:50:19.530Z,1016.1
2018-08-06T06:51:00.098Z,1016.13
2018-08-06T06:51:40.670Z,1016.13
2018-08-06T06:52:21.294Z,1016.14
2018-08-06T06:53:01.979Z,1016.14
2018-08-06T06:53:42.545Z,1016.15
2018-08-06T06:54:23.303Z,1016.12
2018-08-06T06:55:03.733Z,1016.14
2018-08-06T06:55:44.313Z,1016.14
2018-08-06T06:56:25.969Z,1016.12
2018-08-06T06:57:06.617Z,1016.19
2018-08-06T06:57:47.172Z,1016.14
2018-08-06T06:58:27.708Z,1016.16
2018-08-06T06:59:08.259Z,1016.15
2018-08-06T06:59:48.932Z,1016.14
2018-08-06T07:00:29.477Z,1016.19
2018-08-06T07:01:10.067Z,1016.15
2018-08-06T07:01:50.650Z,1016.18
2018-08-06T07:02:31.743Z,1016.19
2018-08-06T07:03:12.406Z,1016.24
2018-08-06T07:03:53.102Z,1016.19
2018-08-06T07:04:33.692Z,1016.18
2018-08-06T07:05:14.338Z,1016.2
2018-08-06T07:05:54.901Z,1016.23
2018-08-06T07:06:35.500Z,1016.18
2018-08-06T07:07:16.100Z,1016.24
2018-08-06T07:07:56.620Z,1016.23
2018-08-06T07:08:37.193Z,1016.21
2018-08-06T07:09:17.780Z,1016.2
2018-08-06T07:09:58.548Z,1016.21
2018-08-06T07:10:39.220Z,1016.19
2018-08-06T07:11:19.785Z,1016.18
2018-08-06T07:12:00.591Z,1016.16
2018-08-06T07:12:41.163Z,1016.13
2018-08-06T07:13:21.736Z,1016.14
2018-08-06T07:14:02.319Z,1016.1
2018-08-06T07:14:43.224Z,1016.09
2018-08-06T07:15:23.869Z,1016.09
2018-08-06T07:16:04.532Z,1016.05
2018-08-06T07:16:45.445Z,1016.05
2018-08-06T07:17:26.053Z,1016.07
2018-08-06T07:18:06.636Z,1016.1
2018-08-06T07:18:47.214Z,1015.98
2018-08-06T07:19:28.384Z,1016.04
2018-08-06T07:20:09.047Z,1016.04
2018-08-06T07:20:49.632Z,1016.03
2018-08-06T07:21:31.249Z,1016.05
2018-08-06T07:22:11.422Z,1016.05
2018-08-06T07:22:52.006Z,1016.06
2018-08-06T07:23:32.610Z,1015.99
2018-08-06T07:24:13.200Z,1016
2018-08-06T07:24:53.825Z,1016.04
2018-08-06T07:25:34.412Z,1015.97
2018-08-06T07:26:15.025Z,1015.98
2018-08-06T07:26:55.939Z,1015.87
2018-08-06T07:27:36.583Z,1015.83
2018-08-06T07:28:17.164Z,1015.87
2018-08-06T07:28:57.740Z,1015.79
2018-08-06T07:29:38.319Z,1015.82
2018-08-06T07:30:18.895Z,1016
2018-08-06T07:30:59.473Z,1015.97
2018-08-06T07:31:40.020Z,1016.02
2018-08-06T07:32:20.599Z,1016.03
2018-08-06T07:33:01.165Z,1015.99
2018-08-06T07:33:41.748Z,1016.05
2018-08-06T07:34:22.313Z,1016.02
2018-08-06T07:35:02.911Z,1016
2018-08-06T07:35:43.498Z,1016
2018-08-06T07:36:24.071Z,1016
2018-08-06T07:37:04.644Z,1016
2018-08-06T07:37:45.420Z,1015.98
2018-08-06T07:38:25.905Z,1015.98
2018-08-06T07:39:06.475Z,1016
2018-08-06T07:39:47.066Z,1015.98
2018-08-06T07:40:27.646Z,1015.99
2018-08-06T07:41:08.214Z,1015.98
2018-08-06T07:41:48.788Z,1015.98
2018-08-06T07:42:29.351Z,1015.97
2018-08-06T07:43:09.960Z,1016.01
2018-08-06T07:43:50.513Z,1016.03
2018-08-06T07:44:31.090Z,1016.01
2018-08-06T07:45:11.673Z,1016.03
2018-08-06T07:45:52.247Z,1016.02
2018-08-06T07:46:32.822Z,1015.96
2018-08-06T07:47:13.397Z,1015.93
2018-08-06T07:47:53.980Z,1015.94
2018-08-06T07:48:34.564Z,1015.93
2018-08-06T07:49:15.134Z,1015.93
2018-08-06T07:49:55.751Z,1015.93
2018-08-06T07:50:36.278Z,1015.91
2018-08-06T07:51:16.851Z,1015.9
2018-08-06T07:51:57.432Z,1015.94
2018-08-06T07:52:38.007Z,1015.94
2018-08-06T07:53:18.576Z,1015.94
2018-08-06T07:53:59.155Z,1015.93
2018-08-06T07:54:39.722Z,1015.92
2018-08-06T07:55:20.286Z,1015.94
2018-08-06T07:56:00.862Z,1015.95
2018-08-06T07:56:41.481Z,1015.95
2018-08-06T07:57:22.098Z,1015.95
2018-08-06T07:58:02.658Z,1015.96
2018-08-06T07:58:43.308Z,1015.96
2018-08-06T07:59:23.876Z,1015.97
2018-08-06T08:00:04.448Z,1015.94
2018-08-06T08:00:45.031Z,1015.92
2018-08-06T08:01:25.588Z,1015.91
2018-08-06T08:02:06.175Z,1015.9
2018-08-06T08:02:46.753Z,1015.89
2018-08-06T08:03:27.342Z,1015.86
2018-08-06T08:04:07.921Z,1015.87
2018-08-06T08:04:48.690Z,1015.84
2018-08-06T08:05:29.288Z,1015.83
2018-08-06T08:06:09.862Z,1015.82
2018-08-06T08:06:50.642Z,1015.82
2018-08-06T08:07:31.224Z,1015.78
2018-08-06T08:08:11.809Z,1015.82
2018-08-06T08:08:52.419Z,1015.83
2018-08-06T08:09:32.995Z,1015.83
2018-08-06T08:10:13.570Z,1015.82
2018-08-06T08:10:54.165Z,1015.84
2018-08-06T08:11:34.735Z,1015.85
2018-08-06T08:12:15.290Z,1015.82
2018-08-06T08:12:55.874Z,1015.8
2018-08-06T08:13:36.484Z,1015.82